createdAt,value
2018-10-01T00:01:12.645Z,91.40
2018-10-01T00:06:16.211Z,91.30
2018-10-01T00:11:20.075Z,91.60
2018-10-01T00:16:23.619Z,92.00
2018-10-01T00:21:32.388Z,92.60
2018-10-01T00:26:35.887Z,93.00
2018-10-01T00:31:39.653Z,93.70
2018-10-01T00:36:43.481Z,94.60
2018-10-01T00:41:47.740Z,95.40
2018-10-01T00:46:51.542Z,96.10
2018-10-01T00:51:55.083Z,96.80
2018-10-01T00:56:58.594Z,96.90
2018-10-01T01:02:02.079Z,97.00
2018-10-01T01:07:05.677Z,97.40
2018-10-01T01:12:09.246Z,97.40
2018-10-01T01:17:13.478Z,97.80
2018-10-01T01:22:18.029Z,98.20
2018-10-01T01:27:22.378Z,98.20
2018-10-01T01:32:26.187Z,98.50
2018-10-01T01:37:29.693Z,98.70
2018-10-01T01:42:33.336Z,99.00
2018-10-01T01:47:37.026Z,99.00
2018-10-01T01:52:41.208Z,99.10
2018-10-01T01:57:45.009Z,99.10
2018-10-01T02:02:49.002Z,99.40
2018-10-01T02:07:52.558Z,99.40
2018-10-01T02:12:56.102Z,99.80
2018-10-01T02:17:59.581Z,99.90
2018-10-01T02:23:03.096Z,99.70
2018-10-01T02:28:07.061Z,99.90
2018-10-01T02:33:10.736Z,99.80
2018-10-01T02:38:14.956Z,99.80
2018-10-01T02:43:19.030Z,99.20
2018-10-01T02:48:22.530Z,98.90
2018-10-01T02:53:31.152Z,97.70
2018-10-01T02:58:34.651Z,97.50
2018-10-01T03:03:38.171Z,97.60
2018-10-01T03:08:41.679Z,97.10
2018-10-01T03:13:45.678Z,94.30
2018-10-01T03:18:49.701Z,95.50
2018-10-01T03:23:53.251Z,95.90
2018-10-01T03:28:57.017Z,95.20
2018-10-01T03:34:00.616Z,95.00
2018-10-01T03:39:05.594Z,95.60
2018-10-01T03:44:10.393Z,95.50
2018-10-01T03:49:15.036Z,93.90
2018-10-01T03:54:18.519Z,94.60
2018-10-01T03:59:22.018Z,92.40
2018-10-01T04:04:25.541Z,91.70
2018-10-01T04:09:29.039Z,91.40
2018-10-01T04:14:32.918Z,90.10
2018-10-01T04:19:36.651Z,91.40
2018-10-01T04:24:40.750Z,90.50
2018-10-01T04:29:45.161Z,91.20
2018-10-01T04:34:48.761Z,92.70
2018-10-01T04:39:52.266Z,89.00
2018-10-01T04:44:55.754Z,91.20
2018-10-01T04:49:59.335Z,91.90
2018-10-01T04:55:03.537Z,92.70
2018-10-01T05:00:08.841Z,91.30
2018-10-01T05:05:12.576Z,90.80
2018-10-01T05:10:16.110Z,90.80
2018-10-01T05:15:19.657Z,91.30
2018-10-01T05:20:23.184Z,91.40
2018-10-01T05:25:26.766Z,90.60
2018-10-01T05:30:30.422Z,90.80
2018-10-01T05:35:34.420Z,85.50
2018-10-01T05:40:38.144Z,84.70
2018-10-01T05:45:42.160Z,82.80
2018-10-01T05:50:46.425Z,82.70
2018-10-01T05:55:50.009Z,82.70
2018-10-01T06:00:53.607Z,82.60
2018-10-01T06:05:57.098Z,82.80
2018-10-01T06:11:00.575Z,82.60
2018-10-01T06:16:04.127Z,80.80
2018-10-01T06:21:08.296Z,80.20
2018-10-01T06:26:12.258Z,79.50
2018-10-01T06:31:15.771Z,80.40
2018-10-01T06:36:19.601Z,82.00
2018-10-01T06:41:23.090Z,81.20
2018-10-01T06:46:26.585Z,80.00
2018-10-01T06:51:30.080Z,81.40
2018-10-01T06:56:34.094Z,80.20
2018-10-01T07:01:37.748Z,82.20
2018-10-01T07:06:41.568Z,80.10
2018-10-01T07:11:46.192Z,80.20
2018-10-01T07:16:49.770Z,81.00
2018-10-01T07:21:53.293Z,78.40
2018-10-01T07:26:57.023Z,77.90
2018-10-01T07:32:01.259Z,79.20
2018-10-01T07:37:05.037Z,78.90
2018-10-01T07:42:09.141Z,77.10
2018-10-01T07:47:12.652Z,77.50
2018-10-01T07:52:16.269Z,77.70
2018-10-01T07:57:19.848Z,77.80
2018-10-01T08:02:23.426Z,77.00
2018-10-01T08:07:28.549Z,78.50
2018-10-01T08:12:32.369Z,79.90
2018-10-01T08:17:35.893Z,79.70
2018-10-01T08:22:39.402Z,79.20
2018-10-01T08:27:42.890Z,78.10
2018-10-01T08:32:46.403Z,78.80
2018-10-01T08:37:49.946Z,77.50
2018-10-01T08:42:53.463Z,76.60
2018-10-01T08:47:57.205Z,77.10
2018-10-01T08:53:21.711Z,77.20
2018-10-01T08:58:25.279Z,77.00
2018-10-01T09:03:28.761Z,76.30
2018-10-01T09:08:32.396Z,78.50
2018-10-01T09:13:36.572Z,78.60
2018-10-01T09:18:40.417Z,80.50
2018-10-01T09:23:44.217Z,79.20
2018-10-01T09:28:49.696Z,80.60
2018-10-01T09:33:53.572Z,78.90
2018-10-01T09:38:57.485Z,77.90
2018-10-01T09:44:01.255Z,76.60
2018-10-01T09:49:05.092Z,77.00
2018-10-01T09:54:08.612Z,74.70
2018-10-01T09:59:12.105Z,74.00
2018-10-01T10:04:15.648Z,74.70
2018-10-01T10:09:19.951Z,74.60
2018-10-01T10:14:23.696Z,74.60
2018-10-01T10:19:27.301Z,75.60
2018-10-01T10:24:30.912Z,74.50
2018-10-01T10:29:34.420Z,76.00
2018-10-01T10:34:38.054Z,75.00
2018-10-01T10:39:41.593Z,77.20
2018-10-01T10:44:45.139Z,77.10
2018-10-01T10:49:48.646Z,78.20
2018-10-01T10:54:52.165Z,76.10
2018-10-01T10:59:56.308Z,73.90
2018-10-01T11:04:59.884Z,74.40
2018-10-01T11:10:03.750Z,72.70
2018-10-01T11:15:07.959Z,72.80
2018-10-01T11:20:11.885Z,72.70
2018-10-01T11:25:15.480Z,74.00
2018-10-01T11:30:18.939Z,76.30
2018-10-01T11:35:22.570Z,76.90
2018-10-01T11:40:26.105Z,73.70
2018-10-01T11:45:29.859Z,72.90
2018-10-01T11:50:33.953Z,74.40
2018-10-01T11:55:37.771Z,75.00
2018-10-01T12:00:41.517Z,71.30
2018-10-01T12:05:44.981Z,69.70
2018-10-01T12:10:48.527Z,69.20
2018-10-01T12:15:52.227Z,67.30
2018-10-01T12:20:56.062Z,68.90
2018-10-01T12:26:00.645Z,66.50
2018-10-01T12:31:04.191Z,65.70
2018-10-01T12:36:07.817Z,65.70
2018-10-01T12:41:11.283Z,62.90
2018-10-01T12:46:14.864Z,63.50
2018-10-01T12:51:18.456Z,65.70
2018-10-01T12:56:22.078Z,65.00
2018-10-01T13:01:26.012Z,63.30
2018-10-01T13:06:30.208Z,65.30
2018-10-01T13:11:33.806Z,64.90
2018-10-01T13:16:38.275Z,62.30
2018-10-01T13:21:41.781Z,61.80
2018-10-01T13:26:45.325Z,59.50
2018-10-01T13:31:49.831Z,60.40
2018-10-01T13:36:53.473Z,59.20
2018-10-01T13:41:57.996Z,60.70
2018-10-01T13:47:01.653Z,61.50
2018-10-01T13:52:05.173Z,59.80
2018-10-01T13:57:08.666Z,65.00
2018-10-01T14:02:12.367Z,64.20
2018-10-01T14:07:16.219Z,61.20
2018-10-01T14:12:20.099Z,58.70
2018-10-01T14:17:23.754Z,59.00
2018-10-01T14:22:27.600Z,60.00
2018-10-01T14:27:31.332Z,61.90
2018-10-01T14:32:34.883Z,62.70
2018-10-01T14:37:38.368Z,60.00
2018-10-01T14:42:42.214Z,61.50
2018-10-01T14:47:45.702Z,63.40
2018-10-01T14:52:49.449Z,68.20
2018-10-01T14:57:53.486Z,74.10
2018-10-01T15:02:57.105Z,76.70
2018-10-01T15:08:01.680Z,79.00
2018-10-01T15:13:06.265Z,80.30
2018-10-01T15:18:09.778Z,81.00
2018-10-01T15:23:13.365Z,79.70
2018-10-01T15:28:17.018Z,79.40
2018-10-01T15:33:20.887Z,79.30
2018-10-01T15:38:24.668Z,77.50
2018-10-01T15:43:28.232Z,77.50
2018-10-01T15:48:31.922Z,71.30
2018-10-01T15:53:35.383Z,73.50
2018-10-01T15:58:38.927Z,76.30
2018-10-01T16:03:42.474Z,78.40
2018-10-01T16:08:45.970Z,81.50
2018-10-01T16:13:49.533Z,82.10
2018-10-01T16:18:53.130Z,84.00
2018-10-01T16:23:57.268Z,83.70
2018-10-01T16:29:01.520Z,85.00
2018-10-01T16:34:06.157Z,85.00
2018-10-01T16:39:11.798Z,85.80
2018-10-01T16:44:15.451Z,86.70
2018-10-01T16:49:19.334Z,87.60
2018-10-01T16:54:22.932Z,88.20
2018-10-01T16:59:26.697Z,89.00
2018-10-01T17:04:30.190Z,90.30
2018-10-01T17:09:33.697Z,90.80
2018-10-01T17:14:37.191Z,90.90
2018-10-01T17:19:40.943Z,91.80
2018-10-01T17:24:44.761Z,91.40
2018-10-01T17:29:49.012Z,91.00
2018-10-01T17:34:53.508Z,90.80
2018-10-01T17:39:57.103Z,91.30
2018-10-01T17:45:00.809Z,91.60
2018-10-01T17:50:04.496Z,91.90
2018-10-01T17:55:08.286Z,92.60
2018-10-01T18:00:12.240Z,93.00
2018-10-01T18:05:15.853Z,93.40
2018-10-01T18:10:19.606Z,94.60
2018-10-01T18:15:23.367Z,94.60
2018-10-01T18:20:27.011Z,95.10
2018-10-01T18:25:30.556Z,95.30
2018-10-01T18:35:42.975Z,95.20
2018-10-01T18:40:46.706Z,94.40
2018-10-01T18:45:50.300Z,94.10
2018-10-01T18:50:54.356Z,93.40
2018-10-01T18:55:58.285Z,93.40
2018-10-01T19:01:02.187Z,93.90
2018-10-01T19:06:06.266Z,93.10
2018-10-01T19:11:09.885Z,92.60
2018-10-01T19:16:13.350Z,93.50
2018-10-01T19:21:17.042Z,93.70
2018-10-01T19:26:21.524Z,91.40
2018-10-01T19:31:25.447Z,92.20
2018-10-01T19:36:29.280Z,92.40
2018-10-01T19:41:32.996Z,92.20
2018-10-01T19:46:36.580Z,92.30
2018-10-01T19:51:40.072Z,92.00
2018-10-01T19:56:43.740Z,91.70
2018-10-01T20:01:47.270Z,91.90
2018-10-01T20:06:51.064Z,90.80
2018-10-01T20:11:55.690Z,91.00
2018-10-01T20:17:00.378Z,90.60
2018-10-01T20:22:04.335Z,91.50
2018-10-01T20:27:08.231Z,92.80
2018-10-01T20:32:12.272Z,93.20
2018-10-01T20:37:16.110Z,94.10
2018-10-01T20:42:20.331Z,94.80
2018-10-01T20:47:24.595Z,95.20
2018-10-01T20:52:28.145Z,95.70
2018-10-01T20:57:31.589Z,95.70
2018-10-01T21:02:35.188Z,95.40
2018-10-01T21:07:38.655Z,95.60
2018-10-01T21:12:42.526Z,94.40
2018-10-01T21:17:46.633Z,94.20
2018-10-01T21:22:50.338Z,93.50
2018-10-01T21:27:54.143Z,92.50
2018-10-01T21:32:59.185Z,92.90
2018-10-01T21:38:03.144Z,93.70
2018-10-01T21:43:06.953Z,93.10
2018-10-01T21:48:10.624Z,92.00
2018-10-01T21:53:15.189Z,89.90
2018-10-01T21:58:18.700Z,88.60
2018-10-01T22:03:22.296Z,90.10
2018-10-01T22:08:26.047Z,91.20
2018-10-01T22:13:29.840Z,91.10
2018-10-01T22:18:33.709Z,92.00
2018-10-01T22:23:38.145Z,92.40
2018-10-01T22:28:42.270Z,92.30
2018-10-01T22:33:45.880Z,92.90
2018-10-01T22:38:49.346Z,93.30
2018-10-01T22:43:53.500Z,93.80
2018-10-01T22:48:57.597Z,94.50
2018-10-01T22:54:01.354Z,94.90
2018-10-01T22:59:06.113Z,94.50
2018-10-01T23:04:09.643Z,94.40
2018-10-01T23:09:13.135Z,94.50
2018-10-01T23:14:16.608Z,94.20
2018-10-01T23:19:20.579Z,94.30
2018-10-01T23:24:24.863Z,94.50
2018-10-01T23:29:29.622Z,95.10
2018-10-01T23:34:33.370Z,95.90
2018-10-01T23:39:37.026Z,96.50
2018-10-01T23:44:40.525Z,96.80
2018-10-01T23:49:44.517Z,97.00
2018-10-01T23:54:49.319Z,96.90
2018-10-01T23:59:52.926Z,97.40
